Terminal Aerodrome Forecast
Issued by NWS Columbia, SC

Home | Current Version | Previous Version | Text Only | Print | Product List | Glossary On
Versions: 1 2 3 4 5 6 7 8 9 10 11 12 13 14 15 16 17 18 19 20 21 22 23 24 25 26 27 28 29 30 31 32 33 34 35 36 37 38 39 40 41 42 43 44 45 46 47 48 49 50
000
FTAK31 PAJN 261700
TAFAGS
TAF
PAGS 261736Z 2618/2718 31006KT P6SM -RA SCT003 SCT015 OVC035
     FM262100 VRB05KT P6SM -RA FEW005 SCT015 OVC030
     FM270200 33004KT P6SM -RA OVC025
     FM270800 VRB04KT 6SM -RA BR SCT003 BKN020 OVC035
     FM271700 13004KT P6SM -RA FEW003 SCT020 OVC035
      AMD NOT SKED=

USA.gov is the U.S. government's official web portal to all federal, state and local government web resources and services.